Bydgoszcz, Poland
Current Conditions -  °F | °C
As of 8:30 AM on Monday 22 Dec 2014 (Local Time) from EPBY Reporting Station
Light Rain Light Rain  
Wind Chill: 37°   Ceiling: 1400
Heat Index: 45°   Visibility: 6mi
Dew Point: 43°   Wind: 18mph
Humidity: 93%   Direction: 240°WSW
Pressure: 29.62"   Gusts: NA
Location:  53.12°N, 17.99°E
Report Text: EPBY 220630Z 24016KT 9999 -RA OVC014 07/06 Q1003
Loading
Personal Weather Stations






























Interactive Weather Map New forecast layout! Learn more

10-Day Weather Forecast

Advertisements
Track Severe Weather on mobile